sensor_id;sensor_type;location;lat;lon;timestamp;temperature;humidity
16247;DHT22;8231;50.866;7.944;2024-01-30T00:02:19;0.10;99.90
16247;DHT22;8231;50.866;7.944;2024-01-30T00:04:49;0.10;99.90
16247;DHT22;8231;50.866;7.944;2024-01-30T00:07:17;0.00;99.90
16247;DHT22;8231;50.866;7.944;2024-01-30T00:09:46;0.00;99.90
16247;DHT22;8231;50.866;7.944;2024-01-30T00:12:15;0.00;99.90
16247;DHT22;8231;50.866;7.944;2024-01-30T00:14:43;0.00;99.90
16247;DHT22;8231;50.866;7.944;2024-01-30T00:17:11;-0.10;99.90
16247;DHT22;8231;50.866;7.944;2024-01-30T00:19:40;-0.10;99.90
16247;DHT22;8231;50.866;7.944;2024-01-30T00:22:11;-0.10;99.90
16247;DHT22;8231;50.866;7.944;2024-01-30T00:24:39;-0.10;99.90
16247;DHT22;8231;50.866;7.944;2024-01-30T00:27:08;-0.10;99.90
16247;DHT22;8231;50.866;7.944;2024-01-30T00:29:36;-0.10;99.90
16247;DHT22;8231;50.866;7.944;2024-01-30T00:32:05;-0.10;99.90
16247;DHT22;8231;50.866;7.944;2024-01-30T00:34:34;-0.10;99.90
16247;DHT22;8231;50.866;7.944;2024-01-30T00:37:02;-0.20;99.90
16247;DHT22;8231;50.866;7.944;2024-01-30T00:39:32;-0.20;99.90
16247;DHT22;8231;50.866;7.944;2024-01-30T00:42:00;-0.30;99.90
16247;DHT22;8231;50.866;7.944;2024-01-30T00:44:28;-0.30;99.90
16247;DHT22;8231;50.866;7.944;2024-01-30T00:46:57;-0.30;99.90
16247;DHT22;8231;50.866;7.944;2024-01-30T00:49:25;-0.30;99.90
16247;DHT22;8231;50.866;7.944;2024-01-30T00:51:54;-0.30;99.90
16247;DHT22;8231;50.866;7.944;2024-01-30T00:54:22;-0.30;99.90
16247;DHT22;8231;50.866;7.944;2024-01-30T00:56:52;-0.30;99.90
16247;DHT22;8231;50.866;7.944;2024-01-30T00:59:20;-0.40;99.90
16247;DHT22;8231;50.866;7.944;2024-01-30T01:01:48;-0.40;99.90
16247;DHT22;8231;50.866;7.944;2024-01-30T01:04:17;-0.40;99.90
16247;DHT22;8231;50.866;7.944;2024-01-30T01:06:45;-0.30;99.90
16247;DHT22;8231;50.866;7.944;2024-01-30T01:09:14;-0.40;99.90
16247;DHT22;8231;50.866;7.944;2024-01-30T01:11:42;-0.40;99.90
16247;DHT22;8231;50.866;7.944;2024-01-30T01:14:11;-0.40;99.90
16247;DHT22;8231;50.866;7.944;2024-01-30T01:16:40;-0.10;99.90
16247;DHT22;8231;50.866;7.944;2024-01-30T01:19:08;-0.40;99.90
16247;DHT22;8231;50.866;7.944;2024-01-30T01:21:36;-0.50;99.90
16247;DHT22;8231;50.866;7.944;2024-01-30T01:24:05;-0.40;99.90
16247;DHT22;8231;50.866;7.944;2024-01-30T01:26:33;-0.40;99.90
16247;DHT22;8231;50.866;7.944;2024-01-30T01:29:01;-0.50;99.90
16247;DHT22;8231;50.866;7.944;2024-01-30T01:31:38;-0.50;99.90
16247;DHT22;8231;50.866;7.944;2024-01-30T01:34:10;-0.50;99.90
16247;DHT22;8231;50.866;7.944;2024-01-30T01:36:39;-0.50;99.90
16247;DHT22;8231;50.866;7.944;2024-01-30T01:39:08;-0.50;99.90
16247;DHT22;8231;50.866;7.944;2024-01-30T01:41:36;-0.50;99.90
16247;DHT22;8231;50.866;7.944;2024-01-30T01:44:04;-0.60;99.90
16247;DHT22;8231;50.866;7.944;2024-01-30T01:46:33;-0.60;99.90
16247;DHT22;8231;50.866;7.944;2024-01-30T01:49:05;-0.60;99.90
16247;DHT22;8231;50.866;7.944;2024-01-30T01:51:35;-0.50;99.90
16247;DHT22;8231;50.866;7.944;2024-01-30T01:54:04;-0.50;99.90
16247;DHT22;8231;50.866;7.944;2024-01-30T01:56:33;-0.60;99.90
16247;DHT22;8231;50.866;7.944;2024-01-30T01:59:05;-0.60;99.90
16247;DHT22;8231;50.866;7.944;2024-01-30T02:01:36;-0.60;99.90
16247;DHT22;8231;50.866;7.944;2024-01-30T02:04:07;-0.60;99.90
16247;DHT22;8231;50.866;7.944;2024-01-30T02:06:36;-0.70;99.90
16247;DHT22;8231;50.866;7.944;2024-01-30T02:09:05;-0.60;99.90
16247;DHT22;8231;50.866;7.944;2024-01-30T02:11:33;-0.60;99.90
16247;DHT22;8231;50.866;7.944;2024-01-30T02:14:03;-0.70;99.90
16247;DHT22;8231;50.866;7.944;2024-01-30T02:16:32;-0.60;99.90
16247;DHT22;8231;50.866;7.944;2024-01-30T02:19:01;-0.60;99.90
16247;DHT22;8231;50.866;7.944;2024-01-30T02:21:34;-0.60;99.90
16247;DHT22;8231;50.866;7.944;2024-01-30T02:24:03;-0.60;99.90
16247;DHT22;8231;50.866;7.944;2024-01-30T02:26:32;-0.60;99.90
16247;DHT22;8231;50.866;7.944;2024-01-30T02:29:00;-0.70;99.90
16247;DHT22;8231;50.866;7.944;2024-01-30T02:31:28;-0.70;99.90
16247;DHT22;8231;50.866;7.944;2024-01-30T02:33:56;-0.70;99.90
16247;DHT22;8231;50.866;7.944;2024-01-30T02:36:25;-0.70;99.90
16247;DHT22;8231;50.866;7.944;2024-01-30T02:38:55;-0.70;99.90
16247;DHT22;8231;50.866;7.944;2024-01-30T02:41:23;-0.70;99.90
16247;DHT22;8231;50.866;7.944;2024-01-30T02:43:51;-0.70;99.90
16247;DHT22;8231;50.866;7.944;2024-01-30T02:46:19;-0.70;99.90
16247;DHT22;8231;50.866;7.944;2024-01-30T02:48:48;-0.70;99.90
16247;DHT22;8231;50.866;7.944;2024-01-30T02:51:16;-0.80;99.90
16247;DHT22;8231;50.866;7.944;2024-01-30T02:53:44;-0.80;99.90
16247;DHT22;8231;50.866;7.944;2024-01-30T02:56:14;-0.80;99.90
16247;DHT22;8231;50.866;7.944;2024-01-30T02:58:42;-0.80;99.90
16247;DHT22;8231;50.866;7.944;2024-01-30T03:01:10;-0.80;99.90
16247;DHT22;8231;50.866;7.944;2024-01-30T03:03:39;-0.80;99.90
16247;DHT22;8231;50.866;7.944;2024-01-30T03:06:07;-0.80;99.90
16247;DHT22;8231;50.866;7.944;2024-01-30T03:08:36;-0.80;99.90
16247;DHT22;8231;50.866;7.944;2024-01-30T03:11:04;-0.80;99.90
16247;DHT22;8231;50.866;7.944;2024-01-30T03:13:34;-0.80;99.90
16247;DHT22;8231;50.866;7.944;2024-01-30T03:16:02;-0.90;99.90
16247;DHT22;8231;50.866;7.944;2024-01-30T03:18:30;-0.90;99.90
16247;DHT22;8231;50.866;7.944;2024-01-30T03:20:59;-0.90;99.90
16247;DHT22;8231;50.866;7.944;2024-01-30T03:23:27;-0.90;99.90
16247;DHT22;8231;50.866;7.944;2024-01-30T03:25:56;-0.90;99.90
16247;DHT22;8231;50.866;7.944;2024-01-30T03:28:24;-0.80;99.90
16247;DHT22;8231;50.866;7.944;2024-01-30T03:30:54;-0.90;99.90
16247;DHT22;8231;50.866;7.944;2024-01-30T03:33:22;-0.90;99.90
16247;DHT22;8231;50.866;7.944;2024-01-30T03:35:50;-0.90;99.90
16247;DHT22;8231;50.866;7.944;2024-01-30T03:38:19;-0.90;99.90
16247;DHT22;8231;50.866;7.944;2024-01-30T03:40:47;-0.90;99.90
16247;DHT22;8231;50.866;7.944;2024-01-30T03:43:15;-0.90;99.90
16247;DHT22;8231;50.866;7.944;2024-01-30T03:45:43;-0.90;99.90
16247;DHT22;8231;50.866;7.944;2024-01-30T03:48:13;-0.90;99.90
16247;DHT22;8231;50.866;7.944;2024-01-30T03:50:41;-0.90;99.90
16247;DHT22;8231;50.866;7.944;2024-01-30T03:53:10;-1.00;99.90
16247;DHT22;8231;50.866;7.944;2024-01-30T03:55:38;-1.00;99.90
16247;DHT22;8231;50.866;7.944;2024-01-30T03:58:06;-1.00;99.90
16247;DHT22;8231;50.866;7.944;2024-01-30T04:00:34;-1.00;99.90
16247;DHT22;8231;50.866;7.944;2024-01-30T04:03:03;-1.00;99.90
16247;DHT22;8231;50.866;7.944;2024-01-30T04:05:33;-1.00;99.90
16247;DHT22;8231;50.866;7.944;2024-01-30T04:08:02;-1.00;99.90
16247;DHT22;8231;50.866;7.944;2024-01-30T04:10:30;-1.00;99.90
16247;DHT22;8231;50.866;7.944;2024-01-30T04:12:58;-1.00;99.90
16247;DHT22;8231;50.866;7.944;2024-01-30T04:15:27;-1.00;99.90
16247;DHT22;8231;50.866;7.944;2024-01-30T04:17:57;-1.00;99.90
16247;DHT22;8231;50.866;7.944;2024-01-30T04:20:26;-1.00;99.90
16247;DHT22;8231;50.866;7.944;2024-01-30T04:22:56;-0.70;99.90
16247;DHT22;8231;50.866;7.944;2024-01-30T04:25:25;-1.10;99.90
16247;DHT22;8231;50.866;7.944;2024-01-30T04:27:53;-1.00;99.90
16247;DHT22;8231;50.866;7.944;2024-01-30T04:30:21;-1.00;99.90
16247;DHT22;8231;50.866;7.944;2024-01-30T04:32:49;-1.10;99.90
16247;DHT22;8231;50.866;7.944;2024-01-30T04:35:18;-1.10;99.90
16247;DHT22;8231;50.866;7.944;2024-01-30T04:37:47;-1.10;99.90
16247;DHT22;8231;50.866;7.944;2024-01-30T04:40:17;-1.10;99.90
16247;DHT22;8231;50.866;7.944;2024-01-30T04:42:45;-1.10;99.90
16247;DHT22;8231;50.866;7.944;2024-01-30T04:45:14;-1.10;99.90
16247;DHT22;8231;50.866;7.944;2024-01-30T04:47:42;-1.10;99.90
16247;DHT22;8231;50.866;7.944;2024-01-30T04:50:11;-1.10;99.90
16247;DHT22;8231;50.866;7.944;2024-01-30T04:52:39;-1.10;99.90
16247;DHT22;8231;50.866;7.944;2024-01-30T04:55:08;-1.10;99.90
16247;DHT22;8231;50.866;7.944;2024-01-30T04:57:37;-1.10;99.90
16247;DHT22;8231;50.866;7.944;2024-01-30T05:00:07;-1.20;99.90
16247;DHT22;8231;50.866;7.944;2024-01-30T05:02:36;-1.10;99.90
16247;DHT22;8231;50.866;7.944;2024-01-30T05:05:05;-1.00;99.90
16247;DHT22;8231;50.866;7.944;2024-01-30T05:07:33;-1.10;99.90
16247;DHT22;8231;50.866;7.944;2024-01-30T05:10:02;-1.10;99.90
16247;DHT22;8231;50.866;7.944;2024-01-30T05:12:33;-1.10;99.90
16247;DHT22;8231;50.866;7.944;2024-01-30T05:15:04;-1.20;99.90
16247;DHT22;8231;50.866;7.944;2024-01-30T05:17:32;-1.20;99.90
16247;DHT22;8231;50.866;7.944;2024-01-30T05:20:01;-1.20;99.90
16247;DHT22;8231;50.866;7.944;2024-01-30T05:22:30;-1.20;99.90
16247;DHT22;8231;50.866;7.944;2024-01-30T05:24:58;-1.20;99.90
16247;DHT22;8231;50.866;7.944;2024-01-30T05:27:27;-1.20;99.90
16247;DHT22;8231;50.866;7.944;2024-01-30T05:29:55;-1.20;99.90
16247;DHT22;8231;50.866;7.944;2024-01-30T05:32:25;-1.20;99.90
16247;DHT22;8231;50.866;7.944;2024-01-30T05:34:53;-1.20;99.90
16247;DHT22;8231;50.866;7.944;2024-01-30T05:37:22;-1.20;99.90
16247;DHT22;8231;50.866;7.944;2024-01-30T05:39:50;-1.30;99.90
16247;DHT22;8231;50.866;7.944;2024-01-30T05:42:19;-1.20;99.90
16247;DHT22;8231;50.866;7.944;2024-01-30T05:44:47;-1.20;99.90
16247;DHT22;8231;50.866;7.944;2024-01-30T05:47:15;-1.30;99.90
16247;DHT22;8231;50.866;7.944;2024-01-30T05:49:45;-1.30;99.90
16247;DHT22;8231;50.866;7.944;2024-01-30T05:52:14;-1.30;99.90
16247;DHT22;8231;50.866;7.944;2024-01-30T05:54:43;-1.40;99.90
16247;DHT22;8231;50.866;7.944;2024-01-30T05:57:14;-1.30;99.90
16247;DHT22;8231;50.866;7.944;2024-01-30T05:59:42;-1.30;99.90
16247;DHT22;8231;50.866;7.944;2024-01-30T06:02:11;-1.30;99.90
16247;DHT22;8231;50.866;7.944;2024-01-30T06:04:40;-1.40;99.90
16247;DHT22;8231;50.866;7.944;2024-01-30T06:07:10;-1.40;99.90
16247;DHT22;8231;50.866;7.944;2024-01-30T06:09:38;-1.40;99.90
16247;DHT22;8231;50.866;7.944;2024-01-30T06:12:08;-1.40;99.90
16247;DHT22;8231;50.866;7.944;2024-01-30T06:14:38;-1.40;99.90
16247;DHT22;8231;50.866;7.944;2024-01-30T06:17:13;-1.30;99.90
16247;DHT22;8231;50.866;7.944;2024-01-30T06:19:41;-1.40;99.90
16247;DHT22;8231;50.866;7.944;2024-01-30T06:22:13;-1.50;99.90
16247;DHT22;8231;50.866;7.944;2024-01-30T06:24:42;-1.50;99.90
16247;DHT22;8231;50.866;7.944;2024-01-30T06:27:12;-1.40;99.90
16247;DHT22;8231;50.866;7.944;2024-01-30T06:29:40;-1.50;99.90
16247;DHT22;8231;50.866;7.944;2024-01-30T06:32:08;-1.50;99.90
16247;DHT22;8231;50.866;7.944;2024-01-30T06:34:37;-1.50;99.90
16247;DHT22;8231;50.866;7.944;2024-01-30T06:37:07;-1.50;99.90
16247;DHT22;8231;50.866;7.944;2024-01-30T06:39:37;-1.50;99.90
16247;DHT22;8231;50.866;7.944;2024-01-30T06:42:05;-1.50;99.90
16247;DHT22;8231;50.866;7.944;2024-01-30T06:44:33;-1.50;99.90
16247;DHT22;8231;50.866;7.944;2024-01-30T06:47:01;-1.50;99.90
16247;DHT22;8231;50.866;7.944;2024-01-30T06:49:29;-1.50;99.90
16247;DHT22;8231;50.866;7.944;2024-01-30T06:51:58;-1.60;99.90
16247;DHT22;8231;50.866;7.944;2024-01-30T06:54:26;-1.50;99.90
16247;DHT22;8231;50.866;7.944;2024-01-30T06:56:56;-1.50;99.90
16247;DHT22;8231;50.866;7.944;2024-01-30T06:59:24;-1.50;99.90
16247;DHT22;8231;50.866;7.944;2024-01-30T07:01:52;-1.50;99.90
16247;DHT22;8231;50.866;7.944;2024-01-30T07:04:21;-1.50;99.90
16247;DHT22;8231;50.866;7.944;2024-01-30T07:06:50;-1.50;99.90
16247;DHT22;8231;50.866;7.944;2024-01-30T07:09:20;-1.40;99.90
16247;DHT22;8231;50.866;7.944;2024-01-30T07:12:13;-1.50;99.90
16247;DHT22;8231;50.866;7.944;2024-01-30T07:14:41;-1.50;99.90
16247;DHT22;8231;50.866;7.944;2024-01-30T07:17:09;-1.50;99.90
16247;DHT22;8231;50.866;7.944;2024-01-30T07:19:38;-1.50;99.90
16247;DHT22;8231;50.866;7.944;2024-01-30T07:22:06;-1.50;99.90
16247;DHT22;8231;50.866;7.944;2024-01-30T07:24:35;-1.50;99.90
16247;DHT22;8231;50.866;7.944;2024-01-30T07:27:03;-1.50;99.90
16247;DHT22;8231;50.866;7.944;2024-01-30T07:29:34;-1.40;99.90
16247;DHT22;8231;50.866;7.944;2024-01-30T07:32:02;-1.40;99.90
16247;DHT22;8231;50.866;7.944;2024-01-30T07:34:30;-1.40;99.90
16247;DHT22;8231;50.866;7.944;2024-01-30T07:37:07;-1.30;99.90
16247;DHT22;8231;50.866;7.944;2024-01-30T07:39:36;-1.30;99.90
16247;DHT22;8231;50.866;7.944;2024-01-30T07:42:05;-1.20;99.90
16247;DHT22;8231;50.866;7.944;2024-01-30T07:44:35;-1.20;99.90
16247;DHT22;8231;50.866;7.944;2024-01-30T07:47:05;-1.20;99.90
16247;DHT22;8231;50.866;7.944;2024-01-30T07:49:34;-1.10;99.90
16247;DHT22;8231;50.866;7.944;2024-01-30T07:52:03;-1.10;99.90
16247;DHT22;8231;50.866;7.944;2024-01-30T07:54:32;-1.00;99.90
16247;DHT22;8231;50.866;7.944;2024-01-30T07:57:01;-0.90;99.90
16247;DHT22;8231;50.866;7.944;2024-01-30T07:59:29;-0.80;99.90
16247;DHT22;8231;50.866;7.944;2024-01-30T08:01:59;-0.80;99.90
16247;DHT22;8231;50.866;7.944;2024-01-30T08:04:27;-0.70;99.90
16247;DHT22;8231;50.866;7.944;2024-01-30T08:06:55;-0.70;99.90
16247;DHT22;8231;50.866;7.944;2024-01-30T08:09:24;-0.50;99.90
16247;DHT22;8231;50.866;7.944;2024-01-30T08:11:52;-0.50;99.90
16247;DHT22;8231;50.866;7.944;2024-01-30T08:14:21;-0.40;99.90
16247;DHT22;8231;50.866;7.944;2024-01-30T08:16:49;-0.30;99.90
16247;DHT22;8231;50.866;7.944;2024-01-30T08:19:19;-0.20;99.90
16247;DHT22;8231;50.866;7.944;2024-01-30T08:21:47;-0.10;99.90
16247;DHT22;8231;50.866;7.944;2024-01-30T08:24:15;0.00;99.90
16247;DHT22;8231;50.866;7.944;2024-01-30T08:26:44;0.10;99.90
16247;DHT22;8231;50.866;7.944;2024-01-30T08:29:12;0.20;99.90
16247;DHT22;8231;50.866;7.944;2024-01-30T08:31:40;0.30;99.90
16247;DHT22;8231;50.866;7.944;2024-01-30T08:34:09;0.40;99.90
16247;DHT22;8231;50.866;7.944;2024-01-30T08:36:38;0.50;99.90
16247;DHT22;8231;50.866;7.944;2024-01-30T08:39:07;0.50;99.90
16247;DHT22;8231;50.866;7.944;2024-01-30T08:41:35;0.60;99.90
16247;DHT22;8231;50.866;7.944;2024-01-30T08:44:03;0.70;99.90
16247;DHT22;8231;50.866;7.944;2024-01-30T08:46:32;0.80;99.90
16247;DHT22;8231;50.866;7.944;2024-01-30T08:49:00;0.90;99.90
16247;DHT22;8231;50.866;7.944;2024-01-30T08:51:31;1.00;99.90
16247;DHT22;8231;50.866;7.944;2024-01-30T08:54:01;1.00;99.90
16247;DHT22;8231;50.866;7.944;2024-01-30T08:56:29;1.10;99.90
16247;DHT22;8231;50.866;7.944;2024-01-30T08:58:58;1.20;99.90
16247;DHT22;8231;50.866;7.944;2024-01-30T09:01:26;1.30;99.90
16247;DHT22;8231;50.866;7.944;2024-01-30T09:03:54;1.40;99.90
16247;DHT22;8231;50.866;7.944;2024-01-30T09:06:23;1.50;99.90
16247;DHT22;8231;50.866;7.944;2024-01-30T09:08:53;1.60;99.90
16247;DHT22;8231;50.866;7.944;2024-01-30T09:11:23;1.70;99.90
16247;DHT22;8231;50.866;7.944;2024-01-30T09:13:51;1.70;99.90
16247;DHT22;8231;50.866;7.944;2024-01-30T09:16:19;1.80;99.90
16247;DHT22;8231;50.866;7.944;2024-01-30T09:18:48;1.90;99.90
16247;DHT22;8231;50.866;7.944;2024-01-30T09:21:16;2.00;99.90
16247;DHT22;8231;50.866;7.944;2024-01-30T09:23:44;2.00;99.90
16247;DHT22;8231;50.866;7.944;2024-01-30T09:26:12;2.10;99.90
16247;DHT22;8231;50.866;7.944;2024-01-30T09:28:42;2.20;99.90
16247;DHT22;8231;50.866;7.944;2024-01-30T09:31:10;2.30;99.90
16247;DHT22;8231;50.866;7.944;2024-01-30T09:33:39;2.30;99.90
16247;DHT22;8231;50.866;7.944;2024-01-30T09:36:08;2.40;99.90
16247;DHT22;8231;50.866;7.944;2024-01-30T09:38:36;2.50;99.90
16247;DHT22;8231;50.866;7.944;2024-01-30T09:41:08;2.50;99.90
16247;DHT22;8231;50.866;7.944;2024-01-30T09:43:38;2.60;99.90
16247;DHT22;8231;50.866;7.944;2024-01-30T09:46:11;2.70;99.90
16247;DHT22;8231;50.866;7.944;2024-01-30T09:48:41;2.80;99.90
16247;DHT22;8231;50.866;7.944;2024-01-30T09:51:11;2.90;99.90
16247;DHT22;8231;50.866;7.944;2024-01-30T09:53:41;3.00;99.90
16247;DHT22;8231;50.866;7.944;2024-01-30T09:56:10;3.10;99.90
16247;DHT22;8231;50.866;7.944;2024-01-30T09:58:39;3.20;99.90
16247;DHT22;8231;50.866;7.944;2024-01-30T10:01:08;3.30;99.90
16247;DHT22;8231;50.866;7.944;2024-01-30T10:03:38;3.40;99.90
16247;DHT22;8231;50.866;7.944;2024-01-30T10:06:07;3.60;99.90
16247;DHT22;8231;50.866;7.944;2024-01-30T10:08:36;3.70;99.90
16247;DHT22;8231;50.866;7.944;2024-01-30T10:11:04;3.80;99.90
16247;DHT22;8231;50.866;7.944;2024-01-30T10:13:33;3.90;99.90
16247;DHT22;8231;50.866;7.944;2024-01-30T10:16:01;4.10;99.90
16247;DHT22;8231;50.866;7.944;2024-01-30T10:18:31;4.20;99.90
16247;DHT22;8231;50.866;7.944;2024-01-30T10:21:00;4.30;99.90
16247;DHT22;8231;50.866;7.944;2024-01-30T10:23:29;4.40;99.90
16247;DHT22;8231;50.866;7.944;2024-01-30T10:26:02;4.60;99.90
16247;DHT22;8231;50.866;7.944;2024-01-30T10:28:31;4.70;99.90
16247;DHT22;8231;50.866;7.944;2024-01-30T10:31:00;4.90;99.90
16247;DHT22;8231;50.866;7.944;2024-01-30T10:33:34;5.00;99.90
16247;DHT22;8231;50.866;7.944;2024-01-30T10:36:04;5.10;99.90
16247;DHT22;8231;50.866;7.944;2024-01-30T10:38:33;5.20;99.90
16247;DHT22;8231;50.866;7.944;2024-01-30T10:41:01;5.40;99.90
16247;DHT22;8231;50.866;7.944;2024-01-30T10:43:31;5.50;99.90
16247;DHT22;8231;50.866;7.944;2024-01-30T10:46:06;5.60;99.90
16247;DHT22;8231;50.866;7.944;2024-01-30T10:48:42;5.80;99.90
16247;DHT22;8231;50.866;7.944;2024-01-30T10:51:13;6.00;99.90
16247;DHT22;8231;50.866;7.944;2024-01-30T10:53:41;6.00;99.90
16247;DHT22;8231;50.866;7.944;2024-01-30T10:56:12;6.10;99.90
16247;DHT22;8231;50.866;7.944;2024-01-30T10:58:40;6.30;99.90
16247;DHT22;8231;50.866;7.944;2024-01-30T11:01:09;6.40;99.90
16247;DHT22;8231;50.866;7.944;2024-01-30T11:03:39;6.50;99.90
16247;DHT22;8231;50.866;7.944;2024-01-30T11:06:11;6.60;99.90
16247;DHT22;8231;50.866;7.944;2024-01-30T11:08:41;6.70;99.90
16247;DHT22;8231;50.866;7.944;2024-01-30T11:11:09;6.80;99.90
16247;DHT22;8231;50.866;7.944;2024-01-30T11:13:41;6.90;99.90
16247;DHT22;8231;50.866;7.944;2024-01-30T11:16:11;7.10;99.90
16247;DHT22;8231;50.866;7.944;2024-01-30T11:18:41;7.20;99.90
16247;DHT22;8231;50.866;7.944;2024-01-30T11:21:13;7.30;99.90
16247;DHT22;8231;50.866;7.944;2024-01-30T11:23:42;7.40;99.90
16247;DHT22;8231;50.866;7.944;2024-01-30T11:26:10;7.60;99.90
16247;DHT22;8231;50.866;7.944;2024-01-30T11:28:39;7.50;99.90
16247;DHT22;8231;50.866;7.944;2024-01-30T11:31:07;7.60;99.90
16247;DHT22;8231;50.866;7.944;2024-01-30T11:33:36;7.80;99.90
16247;DHT22;8231;50.866;7.944;2024-01-30T11:36:06;7.90;99.90
16247;DHT22;8231;50.866;7.944;2024-01-30T11:38:36;8.00;99.90
16247;DHT22;8231;50.866;7.944;2024-01-30T11:41:06;8.20;99.90
16247;DHT22;8231;50.866;7.944;2024-01-30T11:43:36;8.30;99.90
16247;DHT22;8231;50.866;7.944;2024-01-30T11:46:06;8.50;99.90
16247;DHT22;8231;50.866;7.944;2024-01-30T11:48:35;8.60;99.90
16247;DHT22;8231;50.866;7.944;2024-01-30T11:51:04;8.80;99.90
16247;DHT22;8231;50.866;7.944;2024-01-30T11:53:33;8.90;99.90
16247;DHT22;8231;50.866;7.944;2024-01-30T11:56:02;9.00;99.90
16247;DHT22;8231;50.866;7.944;2024-01-30T11:58:31;9.10;99.90
16247;DHT22;8231;50.866;7.944;2024-01-30T12:00:59;9.20;99.90
16247;DHT22;8231;50.866;7.944;2024-01-30T12:03:27;9.20;99.90
16247;DHT22;8231;50.866;7.944;2024-01-30T12:05:56;9.30;99.90
16247;DHT22;8231;50.866;7.944;2024-01-30T12:08:26;9.30;99.90
16247;DHT22;8231;50.866;7.944;2024-01-30T12:10:57;9.30;99.90
16247;DHT22;8231;50.866;7.944;2024-01-30T12:13:29;9.40;99.90
16247;DHT22;8231;50.866;7.944;2024-01-30T12:16:00;9.40;99.90
16247;DHT22;8231;50.866;7.944;2024-01-30T12:18:29;9.50;99.90
16247;DHT22;8231;50.866;7.944;2024-01-30T12:20:59;9.60;99.90
16247;DHT22;8231;50.866;7.944;2024-01-30T12:23:28;9.70;99.90
16247;DHT22;8231;50.866;7.944;2024-01-30T12:25:58;9.90;99.90
16247;DHT22;8231;50.866;7.944;2024-01-30T12:28:26;9.80;99.90
16247;DHT22;8231;50.866;7.944;2024-01-30T12:30:56;9.90;99.90
16247;DHT22;8231;50.866;7.944;2024-01-30T12:33:27;10.10;99.90
16247;DHT22;8231;50.866;7.944;2024-01-30T12:35:56;10.10;99.90
16247;DHT22;8231;50.866;7.944;2024-01-30T12:38:29;10.10;99.90
16247;DHT22;8231;50.866;7.944;2024-01-30T12:40:59;10.20;99.90
16247;DHT22;8231;50.866;7.944;2024-01-30T12:43:27;10.20;99.90
16247;DHT22;8231;50.866;7.944;2024-01-30T12:46:05;10.40;99.90
16247;DHT22;8231;50.866;7.944;2024-01-30T12:48:34;10.30;99.90
16247;DHT22;8231;50.866;7.944;2024-01-30T12:51:02;10.30;99.90
16247;DHT22;8231;50.866;7.944;2024-01-30T12:53:31;10.30;99.90
16247;DHT22;8231;50.866;7.944;2024-01-30T12:56:01;10.30;99.90
16247;DHT22;8231;50.866;7.944;2024-01-30T12:58:29;10.40;99.90
16247;DHT22;8231;50.866;7.944;2024-01-30T13:00:57;10.30;99.90
16247;DHT22;8231;50.866;7.944;2024-01-30T13:03:26;10.30;99.90
16247;DHT22;8231;50.866;7.944;2024-01-30T13:05:55;10.40;99.90
16247;DHT22;8231;50.866;7.944;2024-01-30T13:08:23;10.70;99.90
16247;DHT22;8231;50.866;7.944;2024-01-30T13:10:51;10.50;99.90
16247;DHT22;8231;50.866;7.944;2024-01-30T13:13:21;10.70;99.90
16247;DHT22;8231;50.866;7.944;2024-01-30T13:15:49;10.80;99.90
16247;DHT22;8231;50.866;7.944;2024-01-30T13:18:17;10.90;99.90
16247;DHT22;8231;50.866;7.944;2024-01-30T13:20:46;11.00;99.90
16247;DHT22;8231;50.866;7.944;2024-01-30T13:23:14;11.00;99.90
16247;DHT22;8231;50.866;7.944;2024-01-30T13:25:43;11.10;99.90
16247;DHT22;8231;50.866;7.944;2024-01-30T13:28:11;11.10;99.90
16247;DHT22;8231;50.866;7.944;2024-01-30T13:30:41;11.20;99.90
16247;DHT22;8231;50.866;7.944;2024-01-30T13:33:09;11.20;99.90
16247;DHT22;8231;50.866;7.944;2024-01-30T13:35:37;11.30;99.90
16247;DHT22;8231;50.866;7.944;2024-01-30T13:38:05;11.30;99.90
16247;DHT22;8231;50.866;7.944;2024-01-30T13:40:34;11.40;99.90
16247;DHT22;8231;50.866;7.944;2024-01-30T13:43:02;11.50;99.90
16247;DHT22;8231;50.866;7.944;2024-01-30T13:45:31;11.60;99.90
16247;DHT22;8231;50.866;7.944;2024-01-30T13:48:00;11.60;99.90
16247;DHT22;8231;50.866;7.944;2024-01-30T13:50:30;11.80;99.90
16247;DHT22;8231;50.866;7.944;2024-01-30T13:53:00;11.90;99.90
16247;DHT22;8231;50.866;7.944;2024-01-30T13:55:28;12.00;99.90
16247;DHT22;8231;50.866;7.944;2024-01-30T13:57:56;12.00;99.90
16247;DHT22;8231;50.866;7.944;2024-01-30T14:00:25;11.90;99.90
16247;DHT22;8231;50.866;7.944;2024-01-30T14:02:53;11.80;99.90
16247;DHT22;8231;50.866;7.944;2024-01-30T14:05:24;11.60;99.90
16247;DHT22;8231;50.866;7.944;2024-01-30T14:07:53;11.50;99.90
16247;DHT22;8231;50.866;7.944;2024-01-30T14:10:21;11.50;99.90
16247;DHT22;8231;50.866;7.944;2024-01-30T14:12:49;11.40;99.90
16247;DHT22;8231;50.866;7.944;2024-01-30T14:15:18;11.40;99.90
16247;DHT22;8231;50.866;7.944;2024-01-30T14:17:55;11.40;99.90
16247;DHT22;8231;50.866;7.944;2024-01-30T14:20:27;11.30;99.90
16247;DHT22;8231;50.866;7.944;2024-01-30T14:22:55;11.30;99.90
16247;DHT22;8231;50.866;7.944;2024-01-30T14:25:24;11.20;99.90
16247;DHT22;8231;50.866;7.944;2024-01-30T14:27:53;11.20;99.90
16247;DHT22;8231;50.866;7.944;2024-01-30T14:30:21;11.10;99.90
16247;DHT22;8231;50.866;7.944;2024-01-30T14:32:49;11.10;99.90
16247;DHT22;8231;50.866;7.944;2024-01-30T14:35:18;11.10;99.90
16247;DHT22;8231;50.866;7.944;2024-01-30T14:37:49;11.00;99.90
16247;DHT22;8231;50.866;7.944;2024-01-30T14:40:17;11.00;99.90
16247;DHT22;8231;50.866;7.944;2024-01-30T14:42:46;10.90;99.90
16247;DHT22;8231;50.866;7.944;2024-01-30T14:45:14;10.90;99.90
16247;DHT22;8231;50.866;7.944;2024-01-30T14:47:44;10.90;99.90
16247;DHT22;8231;50.866;7.944;2024-01-30T14:50:12;10.90;99.90
16247;DHT22;8231;50.866;7.944;2024-01-30T14:52:43;10.80;99.90
16247;DHT22;8231;50.866;7.944;2024-01-30T14:55:13;10.80;99.90
16247;DHT22;8231;50.866;7.944;2024-01-30T14:57:41;10.70;99.90
16247;DHT22;8231;50.866;7.944;2024-01-30T15:00:13;10.70;99.90
16247;DHT22;8231;50.866;7.944;2024-01-30T15:02:43;10.60;99.90
16247;DHT22;8231;50.866;7.944;2024-01-30T15:05:11;10.60;99.90
16247;DHT22;8231;50.866;7.944;2024-01-30T15:07:40;10.60;99.90
16247;DHT22;8231;50.866;7.944;2024-01-30T15:10:09;10.60;99.90
16247;DHT22;8231;50.866;7.944;2024-01-30T15:12:39;10.60;99.90
16247;DHT22;8231;50.866;7.944;2024-01-30T15:15:07;10.50;99.90
16247;DHT22;8231;50.866;7.944;2024-01-30T15:17:37;10.50;99.90
16247;DHT22;8231;50.866;7.944;2024-01-30T15:20:07;10.50;99.90
16247;DHT22;8231;50.866;7.944;2024-01-30T15:22:35;10.40;99.90
16247;DHT22;8231;50.866;7.944;2024-01-30T15:25:05;10.40;99.90
16247;DHT22;8231;50.866;7.944;2024-01-30T15:27:33;10.30;99.90
16247;DHT22;8231;50.866;7.944;2024-01-30T15:30:03;10.50;99.90
16247;DHT22;8231;50.866;7.944;2024-01-30T15:32:31;10.20;99.90
16247;DHT22;8231;50.866;7.944;2024-01-30T15:35:00;10.20;99.90
16247;DHT22;8231;50.866;7.944;2024-01-30T15:37:32;10.10;99.90
16247;DHT22;8231;50.866;7.944;2024-01-30T15:40:00;10.00;99.90
16247;DHT22;8231;50.866;7.944;2024-01-30T15:42:29;9.90;99.90
16247;DHT22;8231;50.866;7.944;2024-01-30T15:44:57;9.80;99.90
16247;DHT22;8231;50.866;7.944;2024-01-30T15:47:27;9.80;99.90
16247;DHT22;8231;50.866;7.944;2024-01-30T15:49:55;9.80;99.90
16247;DHT22;8231;50.866;7.944;2024-01-30T15:52:24;9.70;99.90
16247;DHT22;8231;50.866;7.944;2024-01-30T15:54:52;9.70;99.90
16247;DHT22;8231;50.866;7.944;2024-01-30T15:57:20;9.60;99.90
16247;DHT22;8231;50.866;7.944;2024-01-30T15:59:50;9.50;99.90
16247;DHT22;8231;50.866;7.944;2024-01-30T16:02:19;9.50;99.90